createdAt,value
2023-01-21T00:02:12.291Z,44.10
2023-01-21T00:04:40.735Z,44.13
2023-01-21T00:07:09.564Z,44.30
2023-01-21T00:09:38.752Z,44.30
2023-01-21T00:12:07.639Z,42.17
2023-01-21T00:14:37.501Z,44.13
2023-01-21T00:17:06.000Z,41.00
2023-01-21T00:19:36.110Z,45.00
2023-01-21T00:22:05.188Z,44.17
2023-01-21T00:24:33.612Z,41.73
2023-01-21T00:27:02.182Z,41.33
2023-01-21T00:29:30.673Z,44.50
2023-01-21T00:32:00.514Z,41.50
2023-01-21T00:34:32.052Z,42.43
2023-01-21T00:37:00.451Z,41.37
2023-01-21T00:39:28.972Z,40.20
2023-01-21T00:41:57.309Z,41.87
2023-01-21T00:44:27.770Z,38.83
2023-01-21T00:46:56.423Z,41.87
2023-01-21T00:49:26.177Z,47.93
2023-01-21T00:51:54.720Z,39.53
2023-01-21T00:54:26.541Z,43.10
2023-01-21T00:56:55.385Z,38.50
2023-01-21T00:59:24.090Z,38.37
2023-01-21T01:01:55.426Z,40.50
2023-01-21T01:04:26.067Z,37.40
2023-01-21T01:06:55.242Z,45.20
2023-01-21T01:09:25.032Z,42.17
2023-01-21T01:11:54.000Z,43.10
2023-01-21T01:14:22.570Z,41.40
2023-01-21T01:16:51.229Z,39.67
2023-01-21T01:19:19.853Z,35.70
2023-01-21T01:21:49.838Z,40.10
2023-01-21T01:24:18.232Z,36.53
2023-01-21T01:26:49.595Z,35.00
2023-01-21T01:29:18.672Z,37.07
2023-01-21T01:31:47.308Z,34.63
2023-01-21T01:34:15.806Z,38.07
2023-01-21T01:36:44.862Z,36.73
2023-01-21T01:39:14.649Z,40.00
2023-01-21T01:41:43.287Z,34.80
2023-01-21T01:44:45.009Z,38.13
2023-01-21T01:47:15.562Z,37.40
2023-01-21T01:49:44.516Z,40.70
2023-01-21T01:52:18.216Z,39.47
2023-01-21T01:54:53.090Z,39.90
2023-01-21T01:57:25.157Z,40.17
2023-01-21T01:59:53.621Z,38.77
2023-01-21T02:02:22.405Z,37.60
2023-01-21T02:04:55.118Z,41.17
2023-01-21T02:07:27.612Z,40.53
2023-01-21T02:09:57.652Z,41.13
2023-01-21T02:12:26.684Z,43.83
2023-01-21T02:14:55.377Z,46.60
2023-01-21T02:17:47.237Z,45.70
2023-01-21T02:20:42.178Z,45.70
2023-01-21T02:23:21.212Z,41.07
2023-01-21T02:26:19.608Z,47.20
2023-01-21T02:29:14.384Z,43.30
2023-01-21T02:32:08.337Z,43.20
2023-01-21T02:34:43.078Z,52.30
2023-01-21T02:37:14.124Z,44.13
2023-01-21T02:39:59.634Z,43.70
2023-01-21T02:42:33.849Z,45.93
2023-01-21T02:45:10.666Z,47.00
2023-01-21T02:47:47.077Z,46.70
2023-01-21T02:50:23.133Z,43.33
2023-01-21T02:52:57.480Z,44.80
2023-01-21T02:55:29.312Z,43.53
2023-01-21T02:58:00.845Z,44.23
2023-01-21T03:00:37.428Z,42.67
2023-01-21T03:03:36.141Z,38.67
2023-01-21T03:06:39.914Z,45.27
2023-01-21T03:09:23.302Z,42.03
2023-01-21T03:12:01.208Z,43.23
2023-01-21T03:14:53.689Z,40.67
2023-01-21T03:17:30.277Z,44.70
2023-01-21T03:20:03.087Z,68.97
2023-01-21T03:22:36.552Z,45.33
2023-01-21T03:25:07.153Z,44.60
2023-01-21T03:27:36.494Z,42.63
2023-01-21T03:30:11.205Z,43.57
2023-01-21T03:32:42.173Z,43.27
2023-01-21T03:35:13.203Z,41.77
2023-01-21T03:37:46.957Z,42.27
2023-01-21T03:40:21.449Z,43.20
2023-01-21T03:42:56.288Z,48.27
2023-01-21T03:45:44.992Z,45.23
2023-01-21T03:48:19.928Z,41.70
2023-01-21T03:50:54.733Z,45.43
2023-01-21T03:53:27.512Z,48.90
2023-01-21T03:55:55.953Z,47.73
2023-01-21T03:58:24.488Z,46.53
2023-01-21T04:00:52.975Z,53.70
2023-01-21T04:03:21.527Z,46.20
2023-01-21T04:05:50.316Z,50.20
2023-01-21T04:08:20.835Z,45.30
2023-01-21T04:10:50.581Z,45.93
2023-01-21T04:13:19.099Z,39.43
2023-01-21T04:15:47.507Z,41.10
2023-01-21T04:18:16.074Z,49.27
2023-01-21T04:20:47.028Z,39.03
2023-01-21T04:23:15.566Z,37.10
2023-01-21T04:25:43.985Z,38.00
2023-01-21T04:28:13.866Z,41.93
2023-01-21T04:30:42.321Z,32.60
2023-01-21T04:33:10.934Z,34.77
2023-01-21T04:35:39.398Z,34.50
2023-01-21T04:38:08.238Z,31.30
2023-01-21T04:40:36.744Z,35.17
2023-01-21T04:43:05.248Z,36.40
2023-01-21T04:45:37.501Z,32.03
2023-01-21T04:48:06.257Z,33.07
2023-01-21T04:50:37.239Z,28.77
2023-01-21T04:53:05.788Z,29.70
2023-01-21T04:55:36.237Z,27.83
2023-01-21T04:58:04.902Z,28.20
2023-01-21T05:00:37.417Z,30.00
2023-01-21T05:03:05.967Z,29.30
2023-01-21T05:05:34.446Z,36.07
2023-01-21T05:08:02.991Z,26.43
2023-01-21T05:10:31.550Z,33.13
2023-01-21T05:13:00.429Z,28.60
2023-01-21T05:15:28.951Z,30.87
2023-01-21T05:17:58.936Z,29.37
2023-01-21T05:20:27.617Z,34.67
2023-01-21T05:22:56.153Z,29.37
2023-01-21T05:25:27.308Z,30.60
2023-01-21T05:27:56.855Z,27.03
2023-01-21T05:30:25.245Z,26.80
2023-01-21T05:32:54.091Z,26.43
2023-01-21T05:35:25.282Z,27.20
2023-01-21T05:37:53.804Z,28.73
2023-01-21T05:40:22.354Z,27.13
2023-01-21T05:42:50.833Z,28.03
2023-01-21T05:45:19.540Z,26.10
2023-01-21T05:47:48.030Z,26.83
2023-01-21T05:50:16.764Z,26.10
2023-01-21T05:52:46.861Z,28.13
2023-01-21T05:55:15.305Z,22.87
2023-01-21T05:57:44.938Z,24.37
2023-01-21T06:00:14.968Z,28.87
2023-01-21T06:02:43.671Z,24.93
2023-01-21T06:05:12.134Z,28.10
2023-01-21T06:07:40.658Z,25.97
2023-01-21T06:10:12.060Z,23.87
2023-01-21T06:12:43.457Z,25.27
2023-01-21T06:15:13.954Z,22.80
2023-01-21T06:17:42.608Z,26.30
2023-01-21T06:20:12.265Z,21.87
2023-01-21T06:22:40.803Z,31.87
2023-01-21T06:25:11.835Z,23.80
2023-01-21T06:27:40.334Z,23.70
2023-01-21T06:30:11.120Z,25.27
2023-01-21T06:32:41.220Z,20.83
2023-01-21T06:35:10.222Z,21.00
2023-01-21T06:37:38.790Z,25.97
2023-01-21T06:40:09.211Z,24.53
2023-01-21T06:42:39.135Z,23.93
2023-01-21T06:45:09.334Z,22.40
2023-01-21T06:47:37.838Z,25.80
2023-01-21T06:50:07.139Z,24.57
2023-01-21T06:52:35.722Z,22.90
2023-01-21T06:55:04.273Z,21.67
2023-01-21T06:57:32.787Z,21.30
2023-01-21T07:00:02.638Z,21.97
2023-01-21T07:02:31.178Z,21.90
2023-01-21T07:04:59.638Z,18.13
2023-01-21T07:07:28.501Z,21.37
2023-01-21T07:09:56.939Z,20.73
2023-01-21T07:12:25.482Z,26.60
2023-01-21T07:14:54.057Z,21.40
2023-01-21T07:17:26.876Z,21.30
2023-01-21T07:19:55.384Z,21.30
2023-01-21T07:22:23.996Z,19.13
2023-01-21T07:24:52.438Z,24.67
2023-01-21T07:27:20.954Z,21.50
2023-01-21T07:29:49.403Z,21.63
2023-01-21T07:32:17.908Z,24.10
2023-01-21T07:34:47.697Z,24.83
2023-01-21T07:37:16.277Z,22.57
2023-01-21T07:39:44.735Z,22.50
2023-01-21T07:42:13.368Z,21.73
2023-01-21T07:44:45.821Z,21.13
2023-01-21T07:47:14.484Z,20.67
2023-01-21T07:49:43.014Z,20.83
2023-01-21T07:52:12.894Z,21.60
2023-01-21T07:54:41.807Z,23.33
2023-01-21T07:57:10.457Z,19.30
2023-01-21T07:59:39.027Z,22.73
2023-01-21T08:02:09.927Z,22.30
2023-01-21T08:04:39.804Z,20.87
2023-01-21T08:07:12.040Z,23.27
2023-01-21T08:09:42.984Z,19.73
2023-01-21T08:12:12.199Z,23.50
2023-01-21T08:14:42.193Z,18.07
2023-01-21T08:17:10.593Z,20.40
2023-01-21T08:19:39.325Z,16.37
2023-01-21T08:22:07.873Z,20.27
2023-01-21T08:24:36.385Z,18.70
2023-01-21T08:27:06.542Z,18.77
2023-01-21T08:29:35.040Z,16.47
2023-01-21T08:32:03.761Z,20.53
2023-01-21T08:34:33.629Z,17.70
2023-01-21T08:37:02.417Z,14.90
2023-01-21T08:39:30.929Z,15.47
2023-01-21T08:41:59.476Z,19.80
2023-01-21T08:44:31.790Z,18.53
2023-01-21T08:47:00.336Z,16.00
2023-01-21T08:49:28.894Z,29.23
2023-01-21T08:51:57.732Z,18.90
2023-01-21T08:54:26.433Z,14.57
2023-01-21T08:56:54.968Z,16.73
2023-01-21T08:59:30.930Z,16.67
2023-01-21T09:02:00.904Z,15.90
2023-01-21T09:04:29.573Z,25.53
2023-01-21T09:06:58.127Z,17.80
2023-01-21T09:09:26.502Z,17.53
2023-01-21T09:11:55.015Z,14.57
2023-01-21T09:14:23.455Z,18.03
2023-01-21T09:16:52.267Z,15.83
2023-01-21T09:19:22.866Z,19.20
2023-01-21T09:21:52.470Z,16.07
2023-01-21T09:24:20.888Z,20.47
2023-01-21T09:26:49.525Z,20.37
2023-01-21T09:29:17.989Z,19.53
2023-01-21T09:31:46.648Z,14.07
2023-01-21T09:34:15.117Z,16.27
2023-01-21T09:36:45.063Z,12.20
2023-01-21T09:39:13.487Z,14.07
2023-01-21T09:41:46.032Z,20.03
2023-01-21T09:44:20.301Z,12.13
2023-01-21T09:46:54.047Z,17.77
2023-01-21T09:49:26.172Z,14.20
2023-01-21T09:52:04.036Z,14.37
2023-01-21T09:54:34.610Z,13.10
2023-01-21T09:57:23.945Z,18.57
2023-01-21T10:00:09.095Z,10.13
2023-01-21T10:02:52.367Z,12.53
2023-01-21T10:05:43.765Z,12.53
2023-01-21T10:08:21.217Z,9.03
2023-01-21T10:10:53.743Z,14.40
2023-01-21T10:13:36.091Z,11.60
2023-01-21T10:16:16.178Z,10.30
2023-01-21T10:18:48.619Z,12.50
2023-01-21T10:21:29.945Z,10.10
2023-01-21T10:24:07.766Z,9.80
2023-01-21T10:26:36.615Z,8.50
2023-01-21T10:29:05.744Z,10.00
2023-01-21T10:31:40.440Z,13.50
2023-01-21T10:34:14.747Z,8.50
2023-01-21T10:37:01.471Z,11.57
2023-01-21T10:39:42.041Z,7.77
2023-01-21T10:42:43.054Z,9.70
2023-01-21T10:45:26.572Z,7.23
2023-01-21T10:48:02.441Z,10.33
2023-01-21T10:50:41.848Z,10.60
2023-01-21T10:53:22.824Z,11.20
2023-01-21T10:56:02.485Z,14.33
2023-01-21T10:58:35.003Z,10.37
2023-01-21T11:01:07.627Z,9.90
2023-01-21T11:03:41.559Z,13.13
2023-01-21T11:06:13.321Z,7.93
2023-01-21T11:08:45.213Z,9.03
2023-01-21T11:11:26.532Z,8.13
2023-01-21T11:13:55.524Z,7.57
2023-01-21T11:16:44.687Z,7.73
2023-01-21T11:19:15.377Z,8.00
2023-01-21T11:22:00.001Z,7.50
2023-01-21T11:24:30.854Z,8.87
2023-01-21T11:27:02.622Z,8.87
2023-01-21T11:29:41.689Z,11.60
2023-01-21T11:32:20.617Z,9.00
2023-01-21T11:34:51.202Z,8.57
2023-01-21T11:37:25.348Z,12.00
2023-01-21T11:39:57.043Z,9.30
2023-01-21T11:42:27.530Z,9.17
2023-01-21T11:44:59.167Z,6.40
2023-01-21T11:47:30.611Z,8.53
2023-01-21T11:50:10.562Z,9.83
2023-01-21T11:52:39.089Z,8.60
2023-01-21T11:55:20.255Z,10.53
2023-01-21T11:57:54.756Z,9.70
2023-01-21T12:00:27.110Z,9.60
2023-01-21T12:02:59.714Z,8.03
2023-01-21T12:05:33.464Z,7.67
2023-01-21T12:08:04.082Z,7.40
2023-01-21T12:10:34.677Z,7.57
2023-01-21T12:13:23.809Z,8.97
2023-01-21T12:16:08.050Z,7.53
2023-01-21T12:18:54.733Z,9.60
2023-01-21T12:21:38.057Z,10.53
2023-01-21T12:24:20.585Z,7.43
2023-01-21T12:26:56.385Z,8.77
2023-01-21T12:29:48.449Z,8.63
2023-01-21T12:32:23.777Z,8.53
2023-01-21T12:35:00.436Z,9.90
2023-01-21T12:37:34.093Z,8.63
2023-01-21T12:40:10.996Z,10.23
2023-01-21T12:42:43.637Z,13.03
2023-01-21T12:45:19.030Z,9.77
2023-01-21T12:47:52.844Z,8.00
2023-01-21T12:50:29.930Z,8.40
2023-01-21T12:53:11.432Z,8.27
2023-01-21T12:56:02.675Z,7.67
2023-01-21T12:58:34.020Z,8.23
2023-01-21T13:01:07.820Z,6.97
2023-01-21T13:03:47.225Z,6.77
2023-01-21T13:06:22.744Z,6.40
2023-01-21T13:09:01.169Z,6.30
2023-01-21T13:11:31.977Z,8.77
2023-01-21T13:14:24.781Z,7.93
2023-01-21T13:16:58.764Z,6.97
2023-01-21T13:19:28.668Z,6.50
2023-01-21T13:22:05.042Z,9.40
2023-01-21T13:24:44.418Z,10.67
2023-01-21T13:27:21.292Z,9.90
2023-01-21T13:30:00.428Z,8.30
2023-01-21T13:32:38.448Z,8.73
2023-01-21T13:35:24.318Z,7.60
2023-01-21T13:38:02.711Z,7.47
2023-01-21T13:40:42.211Z,7.40
2023-01-21T13:43:23.956Z,8.20
2023-01-21T13:46:03.600Z,9.50
2023-01-21T13:48:58.038Z,6.50
2023-01-21T13:51:43.750Z,6.17
2023-01-21T13:54:39.556Z,6.30
2023-01-21T13:57:31.867Z,9.17
2023-01-21T14:00:04.701Z,6.90
2023-01-21T14:02:46.565Z,17.53
2023-01-21T14:05:22.932Z,6.67
2023-01-21T14:07:57.150Z,9.80
2023-01-21T14:10:35.224Z,9.93
2023-01-21T14:13:23.915Z,8.73
2023-01-21T14:16:11.070Z,12.30
2023-01-21T14:19:00.189Z,11.47
2023-01-21T14:21:47.480Z,7.37
2023-01-21T14:24:33.623Z,7.83
2023-01-21T14:27:17.529Z,8.83
2023-01-21T14:29:54.769Z,8.00
2023-01-21T14:32:29.146Z,8.80
2023-01-21T14:35:10.480Z,8.87
2023-01-21T14:37:45.223Z,9.27
2023-01-21T14:40:19.765Z,8.17
2023-01-21T14:42:50.282Z,9.50
2023-01-21T14:45:22.435Z,9.43
2023-01-21T14:47:53.607Z,7.33
2023-01-21T14:50:45.947Z,9.00
2023-01-21T14:53:22.858Z,7.77
2023-01-21T14:56:20.205Z,9.07
2023-01-21T14:58:50.548Z,13.97
2023-01-21T15:01:35.375Z,9.93
2023-01-21T15:04:07.849Z,10.07
2023-01-21T15:06:40.894Z,8.10
2023-01-21T15:09:21.514Z,13.50
2023-01-21T15:11:54.554Z,11.77
2023-01-21T15:14:27.498Z,10.50
2023-01-21T15:16:56.007Z,13.40
2023-01-21T15:19:32.950Z,10.90
2023-01-21T15:22:21.798Z,8.27
2023-01-21T15:25:26.478Z,8.80
2023-01-21T15:28:38.296Z,9.23
2023-01-21T15:31:13.949Z,9.50
2023-01-21T15:33:47.969Z,8.73
2023-01-21T15:36:25.939Z,8.73
2023-01-21T15:39:02.319Z,9.50
2023-01-21T15:41:44.277Z,11.17
2023-01-21T15:44:27.793Z,14.47
2023-01-21T15:47:04.981Z,10.13
2023-01-21T15:49:49.546Z,9.40
2023-01-21T15:52:31.539Z,8.87
2023-01-21T15:55:18.681Z,7.97
2023-01-21T15:57:55.408Z,12.80
2023-01-21T16:00:43.603Z,11.40
2023-01-21T16:03:21.302Z,10.70
2023-01-21T16:05:59.227Z,10.20
2023-01-21T16:08:47.207Z,8.63
2023-01-21T16:11:34.095Z,7.73
2023-01-21T16:14:18.331Z,11.30
2023-01-21T16:16:57.832Z,9.80
2023-01-21T16:19:31.819Z,9.13
2023-01-21T16:22:05.080Z,8.47
2023-01-21T16:24:38.769Z,9.10
2023-01-21T16:27:21.635Z,14.13
2023-01-21T16:29:56.237Z,9.50
2023-01-21T16:32:25.508Z,13.07
2023-01-21T16:34:55.763Z,11.27
2023-01-21T16:37:26.278Z,26.43
2023-01-21T16:39:56.278Z,28.30
2023-01-21T16:42:30.970Z,18.40
2023-01-21T16:45:00.014Z,13.97
2023-01-21T16:47:32.484Z,13.90
2023-01-21T16:50:03.332Z,12.70
2023-01-21T16:52:32.467Z,16.33
2023-01-21T16:55:01.174Z,10.20
2023-01-21T16:57:32.111Z,14.07
2023-01-21T17:00:03.451Z,15.13
2023-01-21T17:02:34.282Z,18.50
2023-01-21T17:05:05.999Z,12.63
2023-01-21T17:07:39.169Z,9.47
2023-01-21T17:10:19.316Z,22.93
2023-01-21T17:12:49.664Z,14.37
2023-01-21T17:15:22.016Z,23.80
2023-01-21T17:17:50.514Z,23.07
2023-01-21T17:20:40.551Z,17.53
2023-01-21T17:23:15.791Z,34.53
2023-01-21T17:25:44.537Z,40.00
2023-01-21T17:28:19.934Z,63.00
2023-01-21T17:31:08.966Z,172.57
2023-01-21T17:33:37.567Z,126.63
2023-01-21T17:36:09.928Z,76.90
2023-01-21T17:38:43.583Z,66.03
2023-01-21T17:41:24.601Z,64.13
2023-01-21T17:43:56.986Z,39.43
2023-01-21T17:46:26.592Z,27.73
2023-01-21T17:48:59.387Z,12.53
2023-01-21T17:51:31.602Z,9.07
2023-01-21T17:54:03.663Z,8.70
2023-01-21T17:56:43.044Z,8.27
2023-01-21T17:59:37.995Z,10.37
2023-01-21T18:02:13.082Z,15.20
2023-01-21T18:04:41.961Z,11.67
2023-01-21T18:07:21.247Z,14.47
2023-01-21T18:09:50.248Z,9.90
2023-01-21T18:12:19.729Z,11.63
2023-01-21T18:14:48.930Z,9.50
2023-01-21T18:17:19.846Z,10.57
2023-01-21T18:19:48.321Z,10.90
2023-01-21T18:22:24.013Z,10.07
2023-01-21T18:24:52.575Z,11.63
2023-01-21T18:27:25.708Z,13.27
2023-01-21T18:29:58.591Z,11.70
2023-01-21T18:32:27.303Z,9.03
2023-01-21T18:34:57.824Z,11.70
2023-01-21T18:37:28.107Z,9.30
2023-01-21T18:39:56.645Z,10.27
2023-01-21T18:42:26.200Z,11.00
2023-01-21T18:44:54.686Z,11.20
2023-01-21T18:47:25.160Z,9.53
2023-01-21T18:49:54.569Z,12.97
2023-01-21T18:52:23.044Z,11.10
2023-01-21T18:54:52.945Z,16.97
2023-01-21T18:57:23.775Z,15.40
2023-01-21T18:59:52.218Z,12.73
2023-01-21T19:02:21.878Z,14.37
2023-01-21T19:04:50.545Z,11.90
2023-01-21T19:07:23.489Z,16.20
2023-01-21T19:09:53.495Z,12.23
2023-01-21T19:12:24.363Z,8.23
2023-01-21T19:14:55.314Z,10.20
2023-01-21T19:17:33.693Z,12.00
2023-01-21T19:20:02.485Z,16.73
2023-01-21T19:22:32.933Z,11.27
2023-01-21T19:25:02.748Z,10.87
2023-01-21T19:27:35.290Z,11.20
2023-01-21T19:30:03.887Z,9.23
2023-01-21T19:32:32.627Z,10.10
2023-01-21T19:35:01.892Z,11.73
2023-01-21T19:37:30.350Z,11.47
2023-01-21T19:39:58.924Z,18.30
2023-01-21T19:42:28.738Z,11.50
2023-01-21T19:44:59.276Z,11.87
2023-01-21T19:47:30.675Z,39.83
2023-01-21T19:49:59.293Z,56.13
2023-01-21T19:52:27.955Z,34.33
2023-01-21T19:55:00.514Z,13.00
2023-01-21T19:57:30.717Z,14.40
2023-01-21T20:00:00.585Z,18.20
2023-01-21T20:02:29.732Z,10.53
2023-01-21T20:04:58.352Z,7.53
2023-01-21T20:07:26.864Z,10.13
2023-01-21T20:09:55.414Z,14.33
2023-01-21T20:12:23.868Z,7.37
2023-01-21T20:14:53.763Z,15.43
2023-01-21T20:17:25.393Z,17.60
2023-01-21T20:19:53.924Z,28.23
2023-01-21T20:22:22.391Z,29.33
2023-01-21T20:24:51.042Z,12.40
2023-01-21T20:27:19.739Z,10.93
2023-01-21T20:29:55.874Z,10.27
2023-01-21T20:32:32.423Z,17.70
2023-01-21T20:35:03.472Z,23.43
2023-01-21T20:37:31.907Z,10.90
2023-01-21T20:40:00.534Z,11.30
2023-01-21T20:42:32.243Z,6.90
2023-01-21T20:45:00.847Z,19.53
2023-01-21T20:47:38.194Z,15.60
2023-01-21T20:50:21.445Z,8.63
2023-01-21T20:52:51.758Z,7.50
2023-01-21T20:55:21.791Z,8.20
2023-01-21T20:57:50.450Z,9.07
2023-01-21T21:00:23.998Z,9.53
2023-01-21T21:02:55.505Z,9.50
2023-01-21T21:05:28.794Z,9.20
2023-01-21T21:07:57.682Z,10.70
2023-01-21T21:10:29.484Z,8.80
2023-01-21T21:12:58.848Z,9.97
2023-01-21T21:15:29.668Z,11.10
2023-01-21T21:17:58.864Z,9.53
2023-01-21T21:20:30.863Z,10.40
2023-01-21T21:22:59.692Z,9.50
2023-01-21T21:25:30.039Z,8.90
2023-01-21T21:28:00.660Z,7.77
2023-01-21T21:30:31.309Z,8.70
2023-01-21T21:33:01.756Z,10.87
2023-01-21T21:35:33.446Z,9.87
2023-01-21T21:38:05.509Z,8.73
2023-01-21T21:40:36.154Z,10.03
2023-01-21T21:43:22.151Z,7.50
2023-01-21T21:46:10.274Z,8.87
2023-01-21T21:48:42.598Z,8.40
2023-01-21T21:51:14.147Z,8.47
2023-01-21T21:53:42.807Z,12.50
2023-01-21T21:56:14.835Z,6.07
2023-01-21T21:58:43.814Z,9.90
2023-01-21T22:01:13.973Z,7.07
2023-01-21T22:03:43.821Z,7.37
2023-01-21T22:06:14.605Z,8.63
2023-01-21T22:08:46.203Z,6.97
2023-01-21T22:11:16.268Z,7.97
2023-01-21T22:13:47.128Z,8.27
2023-01-21T22:16:18.574Z,8.10
2023-01-21T22:18:49.488Z,6.97
2023-01-21T22:21:21.666Z,12.57
2023-01-21T22:23:50.382Z,8.50
2023-01-21T22:26:20.745Z,8.40
2023-01-21T22:28:51.309Z,9.00
2023-01-21T22:31:23.213Z,10.70
2023-01-21T22:33:52.733Z,11.93
2023-01-21T22:36:24.631Z,9.20
2023-01-21T22:38:53.467Z,10.57
2023-01-21T22:41:26.364Z,9.23
2023-01-21T22:43:55.390Z,15.40
2023-01-21T22:46:25.606Z,9.40
2023-01-21T22:48:55.200Z,8.97
2023-01-21T22:51:25.319Z,8.77
2023-01-21T22:53:54.830Z,9.13
2023-01-21T22:56:44.727Z,10.93
2023-01-21T22:59:14.515Z,9.60
2023-01-21T23:01:43.039Z,10.03
2023-01-21T23:04:12.086Z,14.23
2023-01-21T23:06:44.689Z,10.83
2023-01-21T23:09:17.141Z,13.23
2023-01-21T23:11:46.107Z,10.10
2023-01-21T23:14:14.611Z,11.00
2023-01-21T23:16:43.031Z,15.20
2023-01-21T23:19:11.629Z,11.10
2023-01-21T23:21:41.669Z,11.83
2023-01-21T23:24:11.546Z,11.30
2023-01-21T23:26:40.003Z,12.17
2023-01-21T23:29:08.580Z,9.00
2023-01-21T23:31:37.227Z,10.13
2023-01-21T23:34:07.608Z,15.00
2023-01-21T23:36:35.983Z,8.97
2023-01-21T23:39:05.941Z,15.20
2023-01-21T23:41:34.414Z,13.23
2023-01-21T23:44:04.645Z,9.63
2023-01-21T23:46:33.173Z,12.13
2023-01-21T23:49:01.753Z,14.47
2023-01-21T23:51:32.098Z,14.83
2023-01-21T23:54:01.990Z,12.30
2023-01-21T23:56:33.124Z,23.40
2023-01-21T23:59:01.847Z,15.00
